Holyoke, CO

5:07 AM MST on December 27, 2014 (GMT -0700)
Sidney Municipal | Change Station
CLOSE
Current Station
Airport
Location: Sidney,
Elevation: 4304 ft
Nearby Weather Stations

Elev 4304 ft 41.10 °N, 102.99 °W | Updated 14 minutes ago

Clear
Clear
1 °F
Feels Like -18 °F
N
15
Wind Variable Wind from NW

Today
High -- | Low -- °F
--% Chance of Precip.
Yesterday
High -- | Low -- °F
Precip. -- in
7:11 AM 4:29 PM
Waxing Crescent, 36% visible
Pressure 30.35 in
Visibility 10.0 miles
Clouds Clear
Windchill -18 °F
Dew Point -4 °F
Humidity 79%
Rainfall 0.00 in
Snow Depth Not available.
UV 0 out of 12
Pollen .10 out of 12
Air Quality Not available.
Flu Activity Not available.
METAR KSNY 271153Z AUTO 31013KT 10SM CLR M17/M20 A3011 RMK AO2 SLP275 60000 70002 I6000 T11721200 11094 21178 53002

More Conditions Fewer Conditions

Pressure 30.35 in
Visibility 10.0 miles
Clouds Clear
Windchill -18 °F
Dew Point -4 °F
Humidity 79%
Rainfall 0.00 in
Snow Depth Not available.
UV 0 out of 12
Pollen .10 out of 12
Air Quality Not available.
Flu Activity Not available.
METAR KSNY 271153Z AUTO 31013KT 10SM CLR M17/M20 A3011 RMK AO2 SLP275 60000 70002 I6000 T11721200 11094 21178 53002

More Conditions Fewer Conditions

10-Day Weather Forecast

Almanac

Astronomy

Dec. 27, 2014 Rise Set
Actual Time
Civil Twilight
Nautical Twilight
Astronomical Twilight
Moon
Length of Visible Light
Length of Day
Tomorrow will be .
, % of the Moon is Illuminated

Today's Extremes

State Highs State Lows

Community

WunderPhotos

Upload Photos

1,780,885 photos uploaded!

WunderBlogs® & News

Nearby

Air Quality

  Air Quality AQ Index Pollutant
Not available.

Snow Depth

Station Depth Elevation

Earthquake Activity

City Distance Mag. Time & Date
Minimum magnitude displayed is 2.5.

Coastal Water Temperatures

Place Temperature

Nearby Weather Stations